sensor_id;sensor_type;location;lat;lon;timestamp;P1;durP1;ratioP1;P2;durP2;ratioP2
74074;SDS011;62428;51.412;5.432;2023-11-21T00:00:46;15.63;;;6.10;;
74074;SDS011;62428;51.412;5.432;2023-11-21T00:03:12;11.82;;;5.82;;
74074;SDS011;62428;51.412;5.432;2023-11-21T00:05:40;14.77;;;6.47;;
74074;SDS011;62428;51.412;5.432;2023-11-21T00:08:06;12.47;;;5.77;;
74074;SDS011;62428;51.412;5.432;2023-11-21T00:10:32;12.73;;;6.13;;
74074;SDS011;62428;51.412;5.432;2023-11-21T00:12:57;15.93;;;6.27;;
74074;SDS011;62428;51.412;5.432;2023-11-21T00:15:23;14.03;;;6.27;;
74074;SDS011;62428;51.412;5.432;2023-11-21T00:17:48;12.70;;;6.45;;
74074;SDS011;62428;51.412;5.432;2023-11-21T00:20:13;15.27;;;6.20;;
74074;SDS011;62428;51.412;5.432;2023-11-21T00:22:39;14.47;;;6.73;;
74074;SDS011;62428;51.412;5.432;2023-11-21T00:25:05;14.68;;;5.90;;
74074;SDS011;62428;51.412;5.432;2023-11-21T00:27:33;20.17;;;7.30;;
74074;SDS011;62428;51.412;5.432;2023-11-21T00:30:00;15.25;;;6.72;;
74074;SDS011;62428;51.412;5.432;2023-11-21T00:32:25;19.60;;;7.53;;
74074;SDS011;62428;51.412;5.432;2023-11-21T00:34:50;14.43;;;6.60;;
74074;SDS011;62428;51.412;5.432;2023-11-21T00:37:16;12.60;;;6.63;;
74074;SDS011;62428;51.412;5.432;2023-11-21T00:39:41;12.87;;;6.87;;
74074;SDS011;62428;51.412;5.432;2023-11-21T00:42:07;12.63;;;6.17;;
74074;SDS011;62428;51.412;5.432;2023-11-21T00:44:33;13.52;;;6.93;;
74074;SDS011;62428;51.412;5.432;2023-11-21T00:46:59;12.73;;;6.60;;
74074;SDS011;62428;51.412;5.432;2023-11-21T00:49:24;14.13;;;6.57;;
74074;SDS011;62428;51.412;5.432;2023-11-21T00:51:50;12.67;;;6.63;;
74074;SDS011;62428;51.412;5.432;2023-11-21T00:54:15;12.07;;;6.00;;
74074;SDS011;62428;51.412;5.432;2023-11-21T00:56:42;11.68;;;6.00;;
74074;SDS011;62428;51.412;5.432;2023-11-21T00:59:08;14.45;;;6.90;;
74074;SDS011;62428;51.412;5.432;2023-11-21T01:01:33;10.97;;;6.10;;
74074;SDS011;62428;51.412;5.432;2023-11-21T01:03:58;15.67;;;6.70;;
74074;SDS011;62428;51.412;5.432;2023-11-21T01:06:24;13.20;;;6.20;;
74074;SDS011;62428;51.412;5.432;2023-11-21T01:08:49;15.27;;;6.63;;
74074;SDS011;62428;51.412;5.432;2023-11-21T01:11:15;12.30;;;5.43;;
74074;SDS011;62428;51.412;5.432;2023-11-21T01:13:40;11.63;;;5.75;;
74074;SDS011;62428;51.412;5.432;2023-11-21T01:16:06;12.75;;;6.25;;
74074;SDS011;62428;51.412;5.432;2023-11-21T01:18:32;15.20;;;6.80;;
74074;SDS011;62428;51.412;5.432;2023-11-21T01:20:58;15.38;;;6.30;;
74074;SDS011;62428;51.412;5.432;2023-11-21T01:23:25;12.40;;;6.32;;
74074;SDS011;62428;51.412;5.432;2023-11-21T01:25:50;14.17;;;5.87;;
74074;SDS011;62428;51.412;5.432;2023-11-21T01:28:16;13.55;;;6.20;;
74074;SDS011;62428;51.412;5.432;2023-11-21T01:30:42;9.83;;;6.00;;
74074;SDS011;62428;51.412;5.432;2023-11-21T01:33:07;12.90;;;5.75;;
74074;SDS011;62428;51.412;5.432;2023-11-21T01:35:33;11.33;;;6.07;;
74074;SDS011;62428;51.412;5.432;2023-11-21T01:37:59;11.88;;;5.95;;
74074;SDS011;62428;51.412;5.432;2023-11-21T01:40:24;13.03;;;6.77;;
74074;SDS011;62428;51.412;5.432;2023-11-21T01:42:49;12.07;;;6.23;;
74074;SDS011;62428;51.412;5.432;2023-11-21T01:45:15;11.20;;;5.63;;
74074;SDS011;62428;51.412;5.432;2023-11-21T01:47:41;11.60;;;5.77;;
74074;SDS011;62428;51.412;5.432;2023-11-21T01:50:07;14.65;;;6.50;;
74074;SDS011;62428;51.412;5.432;2023-11-21T01:52:37;11.15;;;5.90;;
74074;SDS011;62428;51.412;5.432;2023-11-21T01:55:04;16.05;;;6.28;;
74074;SDS011;62428;51.412;5.432;2023-11-21T01:57:33;14.02;;;6.50;;
74074;SDS011;62428;51.412;5.432;2023-11-21T01:59:59;11.63;;;6.37;;
74074;SDS011;62428;51.412;5.432;2023-11-21T02:02:36;14.85;;;6.32;;
74074;SDS011;62428;51.412;5.432;2023-11-21T02:05:01;13.43;;;6.60;;
74074;SDS011;62428;51.412;5.432;2023-11-21T02:07:26;19.73;;;6.85;;
74074;SDS011;62428;51.412;5.432;2023-11-21T02:09:52;17.23;;;7.53;;
74074;SDS011;62428;51.412;5.432;2023-11-21T02:12:17;30.50;;;9.30;;
74074;SDS011;62428;51.412;5.432;2023-11-21T02:14:42;32.90;;;9.93;;
74074;SDS011;62428;51.412;5.432;2023-11-21T02:17:09;25.38;;;9.27;;
74074;SDS011;62428;51.412;5.432;2023-11-21T02:19:35;45.23;;;9.90;;
74074;SDS011;62428;51.412;5.432;2023-11-21T02:22:00;54.83;;;10.57;;
74074;SDS011;62428;51.412;5.432;2023-11-21T02:24:28;37.72;;;11.05;;
74074;SDS011;62428;51.412;5.432;2023-11-21T02:26:54;34.93;;;10.67;;
74074;SDS011;62428;51.412;5.432;2023-11-21T02:29:20;20.13;;;10.25;;
74074;SDS011;62428;51.412;5.432;2023-11-21T02:31:55;39.08;;;10.80;;
74074;SDS011;62428;51.412;5.432;2023-11-21T02:34:21;32.73;;;10.93;;
74074;SDS011;62428;51.412;5.432;2023-11-21T02:36:47;47.35;;;10.75;;
74074;SDS011;62428;51.412;5.432;2023-11-21T02:39:16;33.97;;;10.75;;
74074;SDS011;62428;51.412;5.432;2023-11-21T02:41:42;36.25;;;10.65;;
74074;SDS011;62428;51.412;5.432;2023-11-21T02:44:09;25.67;;;10.07;;
74074;SDS011;62428;51.412;5.432;2023-11-21T02:46:35;25.33;;;9.83;;
74074;SDS011;62428;51.412;5.432;2023-11-21T02:49:01;29.52;;;10.13;;
74074;SDS011;62428;51.412;5.432;2023-11-21T02:51:27;40.00;;;10.32;;
74074;SDS011;62428;51.412;5.432;2023-11-21T02:53:53;32.60;;;9.68;;
74074;SDS011;62428;51.412;5.432;2023-11-21T02:56:19;40.40;;;11.23;;
74074;SDS011;62428;51.412;5.432;2023-11-21T02:58:45;37.20;;;10.63;;
74074;SDS011;62428;51.412;5.432;2023-11-21T03:01:10;23.98;;;9.90;;
74074;SDS011;62428;51.412;5.432;2023-11-21T03:03:36;30.70;;;10.70;;
74074;SDS011;62428;51.412;5.432;2023-11-21T03:06:04;46.80;;;10.45;;
74074;SDS011;62428;51.412;5.432;2023-11-21T03:08:29;32.93;;;9.93;;
74074;SDS011;62428;51.412;5.432;2023-11-21T03:10:55;36.23;;;10.57;;
74074;SDS011;62428;51.412;5.432;2023-11-21T03:13:21;31.42;;;9.88;;
74074;SDS011;62428;51.412;5.432;2023-11-21T03:15:46;28.50;;;9.83;;
74074;SDS011;62428;51.412;5.432;2023-11-21T03:18:12;25.65;;;9.90;;
74074;SDS011;62428;51.412;5.432;2023-11-21T03:20:38;32.10;;;10.80;;
74074;SDS011;62428;51.412;5.432;2023-11-21T03:23:04;42.60;;;10.43;;
74074;SDS011;62428;51.412;5.432;2023-11-21T03:25:30;24.45;;;10.02;;
74074;SDS011;62428;51.412;5.432;2023-11-21T03:27:56;27.85;;;10.60;;
74074;SDS011;62428;51.412;5.432;2023-11-21T03:30:21;36.35;;;11.20;;
74074;SDS011;62428;51.412;5.432;2023-11-21T03:32:47;27.13;;;10.77;;
74074;SDS011;62428;51.412;5.432;2023-11-21T03:35:12;35.60;;;12.23;;
74074;SDS011;62428;51.412;5.432;2023-11-21T03:37:37;20.97;;;9.50;;
74074;SDS011;62428;51.412;5.432;2023-11-21T03:40:06;21.40;;;10.43;;
74074;SDS011;62428;51.412;5.432;2023-11-21T03:42:33;23.65;;;10.80;;
74074;SDS011;62428;51.412;5.432;2023-11-21T03:44:58;22.67;;;10.33;;
74074;SDS011;62428;51.412;5.432;2023-11-21T03:47:24;28.67;;;10.00;;
74074;SDS011;62428;51.412;5.432;2023-11-21T03:49:49;26.70;;;10.40;;
74074;SDS011;62428;51.412;5.432;2023-11-21T03:52:14;21.48;;;10.18;;
74074;SDS011;62428;51.412;5.432;2023-11-21T03:54:40;29.47;;;10.17;;
74074;SDS011;62428;51.412;5.432;2023-11-21T03:57:05;27.20;;;10.33;;
74074;SDS011;62428;51.412;5.432;2023-11-21T03:59:31;29.97;;;9.57;;
74074;SDS011;62428;51.412;5.432;2023-11-21T04:01:56;28.50;;;10.00;;
74074;SDS011;62428;51.412;5.432;2023-11-21T04:04:22;24.08;;;9.60;;
74074;SDS011;62428;51.412;5.432;2023-11-21T04:06:47;20.30;;;9.90;;
74074;SDS011;62428;51.412;5.432;2023-11-21T04:09:13;21.60;;;9.63;;
74074;SDS011;62428;51.412;5.432;2023-11-21T04:11:38;23.77;;;9.53;;
74074;SDS011;62428;51.412;5.432;2023-11-21T04:14:03;28.35;;;9.15;;
74074;SDS011;62428;51.412;5.432;2023-11-21T04:16:29;20.25;;;8.85;;
74074;SDS011;62428;51.412;5.432;2023-11-21T04:18:54;36.77;;;9.63;;
74074;SDS011;62428;51.412;5.432;2023-11-21T04:21:19;17.47;;;9.63;;
74074;SDS011;62428;51.412;5.432;2023-11-21T04:23:45;23.33;;;9.13;;
74074;SDS011;62428;51.412;5.432;2023-11-21T04:26:10;21.60;;;8.90;;
74074;SDS011;62428;51.412;5.432;2023-11-21T04:28:35;29.03;;;9.03;;
74074;SDS011;62428;51.412;5.432;2023-11-21T04:31:01;17.83;;;9.40;;
74074;SDS011;62428;51.412;5.432;2023-11-21T04:33:27;25.17;;;9.85;;
74074;SDS011;62428;51.412;5.432;2023-11-21T04:35:53;19.35;;;9.50;;
74074;SDS011;62428;51.412;5.432;2023-11-21T04:38:18;20.47;;;9.80;;
74074;SDS011;62428;51.412;5.432;2023-11-21T04:40:44;16.90;;;8.73;;
74074;SDS011;62428;51.412;5.432;2023-11-21T04:43:09;29.23;;;8.93;;
74074;SDS011;62428;51.412;5.432;2023-11-21T04:45:34;18.88;;;9.15;;
74074;SDS011;62428;51.412;5.432;2023-11-21T04:48:00;17.27;;;8.93;;
74074;SDS011;62428;51.412;5.432;2023-11-21T04:50:25;16.23;;;9.10;;
74074;SDS011;62428;51.412;5.432;2023-11-21T04:52:52;19.02;;;9.70;;
74074;SDS011;62428;51.412;5.432;2023-11-21T04:55:17;19.10;;;8.93;;
74074;SDS011;62428;51.412;5.432;2023-11-21T04:57:43;17.33;;;9.03;;
74074;SDS011;62428;51.412;5.432;2023-11-21T05:00:11;18.47;;;9.67;;
74074;SDS011;62428;51.412;5.432;2023-11-21T05:02:37;18.70;;;9.07;;
74074;SDS011;62428;51.412;5.432;2023-11-21T05:05:03;21.03;;;9.47;;
74074;SDS011;62428;51.412;5.432;2023-11-21T05:07:30;17.08;;;9.02;;
74074;SDS011;62428;51.412;5.432;2023-11-21T05:09:57;16.20;;;8.80;;
74074;SDS011;62428;51.412;5.432;2023-11-21T05:12:22;16.70;;;8.73;;
74074;SDS011;62428;51.412;5.432;2023-11-21T05:14:51;16.05;;;8.90;;
74074;SDS011;62428;51.412;5.432;2023-11-21T05:17:16;18.47;;;9.23;;
74074;SDS011;62428;51.412;5.432;2023-11-21T05:19:42;17.88;;;9.23;;
74074;SDS011;62428;51.412;5.432;2023-11-21T05:22:08;18.43;;;9.03;;
74074;SDS011;62428;51.412;5.432;2023-11-21T05:24:33;17.20;;;9.00;;
74074;SDS011;62428;51.412;5.432;2023-11-21T05:27:00;16.50;;;7.93;;
74074;SDS011;62428;51.412;5.432;2023-11-21T05:29:25;17.05;;;8.90;;
74074;SDS011;62428;51.412;5.432;2023-11-21T05:31:50;15.07;;;8.23;;
74074;SDS011;62428;51.412;5.432;2023-11-21T05:34:16;18.03;;;9.50;;
74074;SDS011;62428;51.412;5.432;2023-11-21T05:36:42;15.80;;;8.23;;
74074;SDS011;62428;51.412;5.432;2023-11-21T05:39:10;16.85;;;8.60;;
74074;SDS011;62428;51.412;5.432;2023-11-21T05:41:36;15.32;;;9.05;;
74074;SDS011;62428;51.412;5.432;2023-11-21T05:44:01;19.50;;;8.63;;
74074;SDS011;62428;51.412;5.432;2023-11-21T05:46:27;17.13;;;9.17;;
74074;SDS011;62428;51.412;5.432;2023-11-21T05:48:52;16.73;;;8.97;;
74074;SDS011;62428;51.412;5.432;2023-11-21T05:51:17;15.73;;;8.53;;
74074;SDS011;62428;51.412;5.432;2023-11-21T05:53:43;15.63;;;9.23;;
74074;SDS011;62428;51.412;5.432;2023-11-21T05:56:08;16.35;;;8.48;;
74074;SDS011;62428;51.412;5.432;2023-11-21T05:58:34;16.13;;;9.20;;
74074;SDS011;62428;51.412;5.432;2023-11-21T06:00:59;16.10;;;9.03;;
74074;SDS011;62428;51.412;5.432;2023-11-21T06:03:24;15.33;;;8.73;;
74074;SDS011;62428;51.412;5.432;2023-11-21T06:05:50;16.30;;;8.97;;
74074;SDS011;62428;51.412;5.432;2023-11-21T06:08:15;17.53;;;8.77;;
74074;SDS011;62428;51.412;5.432;2023-11-21T06:10:42;15.65;;;8.63;;
74074;SDS011;62428;51.412;5.432;2023-11-21T06:13:08;16.70;;;9.32;;
74074;SDS011;62428;51.412;5.432;2023-11-21T06:15:35;18.90;;;8.40;;
74074;SDS011;62428;51.412;5.432;2023-11-21T06:18:00;16.80;;;9.10;;
74074;SDS011;62428;51.412;5.432;2023-11-21T06:20:26;17.73;;;9.40;;
74074;SDS011;62428;51.412;5.432;2023-11-21T06:22:52;17.67;;;9.38;;
74074;SDS011;62428;51.412;5.432;2023-11-21T06:25:17;18.73;;;9.13;;
74074;SDS011;62428;51.412;5.432;2023-11-21T06:27:43;19.17;;;10.10;;
74074;SDS011;62428;51.412;5.432;2023-11-21T06:30:10;21.13;;;9.55;;
74074;SDS011;62428;51.412;5.432;2023-11-21T06:32:37;19.75;;;9.73;;
74074;SDS011;62428;51.412;5.432;2023-11-21T06:35:03;24.27;;;10.88;;
74074;SDS011;62428;51.412;5.432;2023-11-21T06:37:30;19.83;;;9.50;;
74074;SDS011;62428;51.412;5.432;2023-11-21T06:39:56;20.83;;;9.82;;
74074;SDS011;62428;51.412;5.432;2023-11-21T06:42:23;24.45;;;10.43;;
74074;SDS011;62428;51.412;5.432;2023-11-21T06:44:49;24.83;;;9.98;;
74074;SDS011;62428;51.412;5.432;2023-11-21T06:47:16;30.50;;;10.63;;
74074;SDS011;62428;51.412;5.432;2023-11-21T06:49:42;22.95;;;9.82;;
74074;SDS011;62428;51.412;5.432;2023-11-21T06:52:08;24.52;;;9.48;;
74074;SDS011;62428;51.412;5.432;2023-11-21T06:54:34;26.53;;;11.00;;
74074;SDS011;62428;51.412;5.432;2023-11-21T06:56:59;29.73;;;11.93;;
74074;SDS011;62428;51.412;5.432;2023-11-21T06:59:25;37.83;;;12.38;;
74074;SDS011;62428;51.412;5.432;2023-11-21T07:01:50;37.00;;;11.60;;
74074;SDS011;62428;51.412;5.432;2023-11-21T07:04:16;36.65;;;11.88;;
74074;SDS011;62428;51.412;5.432;2023-11-21T07:06:41;40.33;;;12.27;;
74074;SDS011;62428;51.412;5.432;2023-11-21T07:09:08;36.42;;;12.18;;
74074;SDS011;62428;51.412;5.432;2023-11-21T07:11:34;35.67;;;11.80;;
74074;SDS011;62428;51.412;5.432;2023-11-21T07:14:00;43.60;;;12.50;;
74074;SDS011;62428;51.412;5.432;2023-11-21T07:16:32;30.87;;;11.90;;
74074;SDS011;62428;51.412;5.432;2023-11-21T07:19:02;44.42;;;12.27;;
74074;SDS011;62428;51.412;5.432;2023-11-21T07:21:34;42.88;;;12.90;;
74074;SDS011;62428;51.412;5.432;2023-11-21T07:24:00;38.63;;;12.77;;
74074;SDS011;62428;51.412;5.432;2023-11-21T07:26:29;37.53;;;12.32;;
74074;SDS011;62428;51.412;5.432;2023-11-21T07:28:55;42.03;;;13.00;;
74074;SDS011;62428;51.412;5.432;2023-11-21T07:31:21;43.20;;;13.07;;
74074;SDS011;62428;51.412;5.432;2023-11-21T07:33:47;43.45;;;13.73;;
74074;SDS011;62428;51.412;5.432;2023-11-21T07:36:13;38.25;;;13.82;;
74074;SDS011;62428;51.412;5.432;2023-11-21T07:38:39;45.03;;;13.43;;
74074;SDS011;62428;51.412;5.432;2023-11-21T07:41:05;38.40;;;12.93;;
74074;SDS011;62428;51.412;5.432;2023-11-21T07:43:32;40.22;;;13.25;;
74074;SDS011;62428;51.412;5.432;2023-11-21T07:46:00;40.47;;;14.50;;
74074;SDS011;62428;51.412;5.432;2023-11-21T07:48:28;43.85;;;13.35;;
74074;SDS011;62428;51.412;5.432;2023-11-21T07:50:53;42.65;;;13.13;;
74074;SDS011;62428;51.412;5.432;2023-11-21T07:53:19;40.90;;;13.33;;
74074;SDS011;62428;51.412;5.432;2023-11-21T07:55:44;41.23;;;14.73;;
74074;SDS011;62428;51.412;5.432;2023-11-21T07:58:12;54.00;;;15.50;;
74074;SDS011;62428;51.412;5.432;2023-11-21T08:00:37;45.97;;;15.38;;
74074;SDS011;62428;51.412;5.432;2023-11-21T08:03:04;54.93;;;15.47;;
74074;SDS011;62428;51.412;5.432;2023-11-21T08:05:30;61.38;;;15.90;;
74074;SDS011;62428;51.412;5.432;2023-11-21T08:07:56;53.38;;;15.70;;
74074;SDS011;62428;51.412;5.432;2023-11-21T08:10:21;55.00;;;16.13;;
74074;SDS011;62428;51.412;5.432;2023-11-21T08:12:47;58.00;;;16.37;;
74074;SDS011;62428;51.412;5.432;2023-11-21T08:15:13;48.47;;;14.82;;
74074;SDS011;62428;51.412;5.432;2023-11-21T08:17:39;51.00;;;16.53;;
74074;SDS011;62428;51.412;5.432;2023-11-21T08:20:05;46.97;;;16.02;;
74074;SDS011;62428;51.412;5.432;2023-11-21T08:22:31;58.85;;;15.77;;
74074;SDS011;62428;51.412;5.432;2023-11-21T08:24:57;44.97;;;15.63;;
74074;SDS011;62428;51.412;5.432;2023-11-21T08:27:22;49.45;;;15.88;;
74074;SDS011;62428;51.412;5.432;2023-11-21T08:29:48;44.55;;;14.90;;
74074;SDS011;62428;51.412;5.432;2023-11-21T08:32:13;51.97;;;16.17;;
74074;SDS011;62428;51.412;5.432;2023-11-21T08:34:40;47.70;;;15.60;;
74074;SDS011;62428;51.412;5.432;2023-11-21T08:37:07;44.83;;;14.97;;
74074;SDS011;62428;51.412;5.432;2023-11-21T08:39:33;46.03;;;15.10;;
74074;SDS011;62428;51.412;5.432;2023-11-21T08:41:58;46.85;;;15.38;;
74074;SDS011;62428;51.412;5.432;2023-11-21T08:44:23;46.40;;;15.00;;
74074;SDS011;62428;51.412;5.432;2023-11-21T08:46:49;55.07;;;15.10;;
74074;SDS011;62428;51.412;5.432;2023-11-21T08:49:15;52.03;;;15.95;;
74074;SDS011;62428;51.412;5.432;2023-11-21T08:51:40;53.37;;;17.13;;
74074;SDS011;62428;51.412;5.432;2023-11-21T08:54:06;46.27;;;15.60;;
74074;SDS011;62428;51.412;5.432;2023-11-21T08:56:34;54.30;;;16.27;;
74074;SDS011;62428;51.412;5.432;2023-11-21T08:59:00;52.47;;;15.68;;
74074;SDS011;62428;51.412;5.432;2023-11-21T09:01:27;50.27;;;16.07;;
74074;SDS011;62428;51.412;5.432;2023-11-21T09:03:53;49.53;;;16.17;;
74074;SDS011;62428;51.412;5.432;2023-11-21T09:06:18;54.37;;;15.80;;
74074;SDS011;62428;51.412;5.432;2023-11-21T09:08:44;47.88;;;15.68;;
74074;SDS011;62428;51.412;5.432;2023-11-21T09:11:09;51.80;;;16.07;;
74074;SDS011;62428;51.412;5.432;2023-11-21T09:13:35;47.47;;;16.27;;
74074;SDS011;62428;51.412;5.432;2023-11-21T09:16:01;55.22;;;16.27;;
74074;SDS011;62428;51.412;5.432;2023-11-21T09:18:26;53.47;;;15.27;;
74074;SDS011;62428;51.412;5.432;2023-11-21T09:20:51;55.47;;;16.37;;
74074;SDS011;62428;51.412;5.432;2023-11-21T09:23:17;46.60;;;16.27;;
74074;SDS011;62428;51.412;5.432;2023-11-21T09:25:43;47.53;;;16.77;;
74074;SDS011;62428;51.412;5.432;2023-11-21T09:28:11;55.35;;;15.70;;
74074;SDS011;62428;51.412;5.432;2023-11-21T09:30:37;53.53;;;15.10;;
74074;SDS011;62428;51.412;5.432;2023-11-21T09:33:03;54.03;;;17.55;;
74074;SDS011;62428;51.412;5.432;2023-11-21T09:35:33;49.30;;;17.48;;
74074;SDS011;62428;51.412;5.432;2023-11-21T09:37:59;53.83;;;16.63;;
74074;SDS011;62428;51.412;5.432;2023-11-21T09:40:26;55.10;;;16.65;;
74074;SDS011;62428;51.412;5.432;2023-11-21T09:45:25;64.93;;;17.48;;
74074;SDS011;62428;51.412;5.432;2023-11-21T09:47:59;51.15;;;17.83;;
74074;SDS011;62428;51.412;5.432;2023-11-21T09:50:24;56.50;;;17.97;;
74074;SDS011;62428;51.412;5.432;2023-11-21T09:52:58;54.75;;;17.42;;
74074;SDS011;62428;51.412;5.432;2023-11-21T09:55:29;54.63;;;18.02;;
74074;SDS011;62428;51.412;5.432;2023-11-21T09:58:00;54.03;;;18.58;;
74074;SDS011;62428;51.412;5.432;2023-11-21T10:00:28;57.80;;;18.90;;
74074;SDS011;62428;51.412;5.432;2023-11-21T10:02:57;51.10;;;17.70;;
74074;SDS011;62428;51.412;5.432;2023-11-21T10:05:23;54.90;;;17.60;;
74074;SDS011;62428;51.412;5.432;2023-11-21T10:07:49;56.30;;;17.80;;
74074;SDS011;62428;51.412;5.432;2023-11-21T10:10:16;49.78;;;16.95;;
74074;SDS011;62428;51.412;5.432;2023-11-21T10:12:48;51.75;;;18.17;;
74074;SDS011;62428;51.412;5.432;2023-11-21T10:15:18;45.00;;;16.90;;
74074;SDS011;62428;51.412;5.432;2023-11-21T10:17:46;51.47;;;16.88;;
74074;SDS011;62428;51.412;5.432;2023-11-21T10:20:14;51.78;;;16.50;;
74074;SDS011;62428;51.412;5.432;2023-11-21T10:22:40;41.05;;;15.15;;
74074;SDS011;62428;51.412;5.432;2023-11-21T10:25:07;49.03;;;15.95;;
74074;SDS011;62428;51.412;5.432;2023-11-21T10:27:34;45.33;;;14.53;;
74074;SDS011;62428;51.412;5.432;2023-11-21T10:30:03;52.10;;;15.40;;
74074;SDS011;62428;51.412;5.432;2023-11-21T10:32:29;48.00;;;14.63;;
74074;SDS011;62428;51.412;5.432;2023-11-21T10:34:57;42.60;;;14.18;;
74074;SDS011;62428;51.412;5.432;2023-11-21T10:37:25;48.53;;;15.65;;
74074;SDS011;62428;51.412;5.432;2023-11-21T10:39:56;40.93;;;13.43;;
74074;SDS011;62428;51.412;5.432;2023-11-21T10:42:23;44.63;;;13.82;;
74074;SDS011;62428;51.412;5.432;2023-11-21T10:44:49;48.90;;;15.15;;
74074;SDS011;62428;51.412;5.432;2023-11-21T10:47:15;45.65;;;14.73;;
74074;SDS011;62428;51.412;5.432;2023-11-21T10:49:41;44.50;;;14.73;;
74074;SDS011;62428;51.412;5.432;2023-11-21T10:52:06;43.60;;;14.47;;
74074;SDS011;62428;51.412;5.432;2023-11-21T10:54:31;45.70;;;15.37;;
74074;SDS011;62428;51.412;5.432;2023-11-21T10:56:58;46.47;;;14.50;;
74074;SDS011;62428;51.412;5.432;2023-11-21T10:59:26;41.30;;;15.00;;
74074;SDS011;62428;51.412;5.432;2023-11-21T11:01:56;39.47;;;13.75;;
74074;SDS011;62428;51.412;5.432;2023-11-21T11:04:22;39.33;;;13.68;;
74074;SDS011;62428;51.412;5.432;2023-11-21T11:06:55;39.03;;;13.40;;
74074;SDS011;62428;51.412;5.432;2023-11-21T11:09:22;41.65;;;14.63;;
74074;SDS011;62428;51.412;5.432;2023-11-21T11:11:48;38.55;;;13.43;;
74074;SDS011;62428;51.412;5.432;2023-11-21T11:14:14;37.20;;;13.40;;
74074;SDS011;62428;51.412;5.432;2023-11-21T11:16:40;35.10;;;12.45;;
74074;SDS011;62428;51.412;5.432;2023-11-21T11:19:07;42.35;;;13.25;;
74074;SDS011;62428;51.412;5.432;2023-11-21T11:21:37;36.70;;;12.10;;
74074;SDS011;62428;51.412;5.432;2023-11-21T11:35:07;31.98;;;10.30;;
74074;SDS011;62428;51.412;5.432;2023-11-21T11:37:41;33.50;;;11.63;;
74074;SDS011;62428;51.412;5.432;2023-11-21T11:40:07;32.22;;;10.80;;
74074;SDS011;62428;51.412;5.432;2023-11-21T11:42:34;30.60;;;11.10;;
74074;SDS011;62428;51.412;5.432;2023-11-21T11:44:59;31.38;;;9.70;;
74074;SDS011;62428;51.412;5.432;2023-11-21T11:47:28;30.30;;;10.48;;
74074;SDS011;62428;51.412;5.432;2023-11-21T11:50:08;31.90;;;10.70;;
74074;SDS011;62428;51.412;5.432;2023-11-21T11:52:48;27.27;;;9.75;;
74074;SDS011;62428;51.412;5.432;2023-11-21T11:55:17;25.15;;;9.52;;
74074;SDS011;62428;51.412;5.432;2023-11-21T11:57:44;25.85;;;8.60;;
74074;SDS011;62428;51.412;5.432;2023-11-21T12:02:55;25.37;;;9.00;;
74074;SDS011;62428;51.412;5.432;2023-11-21T12:05:28;24.20;;;8.32;;
74074;SDS011;62428;51.412;5.432;2023-11-21T12:08:03;24.13;;;9.48;;
74074;SDS011;62428;51.412;5.432;2023-11-21T12:10:30;24.45;;;8.65;;
74074;SDS011;62428;51.412;5.432;2023-11-21T12:12:57;25.45;;;8.85;;
74074;SDS011;62428;51.412;5.432;2023-11-21T12:15:24;26.97;;;8.47;;
74074;SDS011;62428;51.412;5.432;2023-11-21T12:17:50;23.80;;;8.82;;
74074;SDS011;62428;51.412;5.432;2023-11-21T12:20:20;19.88;;;8.90;;
74074;SDS011;62428;51.412;5.432;2023-11-21T12:22:49;24.13;;;8.85;;
74074;SDS011;62428;51.412;5.432;2023-11-21T12:25:17;21.10;;;9.07;;
74074;SDS011;62428;51.412;5.432;2023-11-21T12:27:47;26.20;;;9.57;;
74074;SDS011;62428;51.412;5.432;2023-11-21T12:30:18;23.63;;;8.65;;
74074;SDS011;62428;51.412;5.432;2023-11-21T12:32:44;27.88;;;9.60;;
74074;SDS011;62428;51.412;5.432;2023-11-21T12:35:13;28.52;;;9.23;;
74074;SDS011;62428;51.412;5.432;2023-11-21T12:37:39;24.47;;;9.33;;
74074;SDS011;62428;51.412;5.432;2023-11-21T12:40:08;27.13;;;9.27;;
74074;SDS011;62428;51.412;5.432;2023-11-21T12:42:36;28.38;;;9.60;;
74074;SDS011;62428;51.412;5.432;2023-11-21T12:45:07;28.83;;;9.25;;
74074;SDS011;62428;51.412;5.432;2023-11-21T12:47:34;32.70;;;10.80;;
74074;SDS011;62428;51.412;5.432;2023-11-21T12:50:02;35.97;;;10.65;;
74074;SDS011;62428;51.412;5.432;2023-11-21T12:52:28;30.65;;;10.68;;
74074;SDS011;62428;51.412;5.432;2023-11-21T12:54:53;33.87;;;11.97;;
74074;SDS011;62428;51.412;5.432;2023-11-21T12:57:19;38.13;;;11.65;;
74074;SDS011;62428;51.412;5.432;2023-11-21T12:59:45;36.27;;;11.70;;
74074;SDS011;62428;51.412;5.432;2023-11-21T13:02:12;39.72;;;12.73;;
74074;SDS011;62428;51.412;5.432;2023-11-21T13:04:40;41.05;;;12.88;;
74074;SDS011;62428;51.412;5.432;2023-11-21T13:07:05;40.47;;;12.90;;
74074;SDS011;62428;51.412;5.432;2023-11-21T13:09:39;39.63;;;13.15;;
74074;SDS011;62428;51.412;5.432;2023-11-21T13:12:06;36.08;;;12.02;;
74074;SDS011;62428;51.412;5.432;2023-11-21T13:14:33;39.67;;;11.77;;
74074;SDS011;62428;51.412;5.432;2023-11-21T13:16:59;35.75;;;10.80;;
74074;SDS011;62428;51.412;5.432;2023-11-21T13:19:24;33.10;;;10.77;;
74074;SDS011;62428;51.412;5.432;2023-11-21T13:21:50;32.73;;;11.47;;
74074;SDS011;62428;51.412;5.432;2023-11-21T13:24:15;32.78;;;11.65;;
74074;SDS011;62428;51.412;5.432;2023-11-21T13:26:42;33.23;;;11.47;;
74074;SDS011;62428;51.412;5.432;2023-11-21T13:29:10;37.85;;;11.60;;
74074;SDS011;62428;51.412;5.432;2023-11-21T13:31:38;35.75;;;11.73;;
74074;SDS011;62428;51.412;5.432;2023-11-21T13:34:03;28.90;;;10.70;;
74074;SDS011;62428;51.412;5.432;2023-11-21T13:36:30;36.00;;;11.47;;
74074;SDS011;62428;51.412;5.432;2023-11-21T13:38:58;30.88;;;11.55;;
74074;SDS011;62428;51.412;5.432;2023-11-21T13:41:24;29.40;;;11.38;;
74074;SDS011;62428;51.412;5.432;2023-11-21T13:43:55;31.45;;;11.05;;
74074;SDS011;62428;51.412;5.432;2023-11-21T13:46:42;30.70;;;10.47;;
74074;SDS011;62428;51.412;5.432;2023-11-21T13:49:08;30.98;;;11.20;;
74074;SDS011;62428;51.412;5.432;2023-11-21T13:51:35;31.75;;;10.77;;
74074;SDS011;62428;51.412;5.432;2023-11-21T13:54:09;27.75;;;10.52;;
74074;SDS011;62428;51.412;5.432;2023-11-21T13:56:38;26.00;;;10.13;;
74074;SDS011;62428;51.412;5.432;2023-11-21T13:59:05;30.17;;;10.98;;
74074;SDS011;62428;51.412;5.432;2023-11-21T14:01:48;28.83;;;9.70;;
74074;SDS011;62428;51.412;5.432;2023-11-21T14:04:20;24.30;;;9.98;;
74074;SDS011;62428;51.412;5.432;2023-11-21T14:06:56;26.23;;;9.80;;
74074;SDS011;62428;51.412;5.432;2023-11-21T14:09:22;35.08;;;11.45;;
74074;SDS011;62428;51.412;5.432;2023-11-21T14:11:52;26.77;;;10.38;;
74074;SDS011;62428;51.412;5.432;2023-11-21T14:14:21;32.37;;;10.77;;
74074;SDS011;62428;51.412;5.432;2023-11-21T14:16:47;32.90;;;12.25;;
74074;SDS011;62428;51.412;5.432;2023-11-21T14:19:13;33.67;;;11.63;;
74074;SDS011;62428;51.412;5.432;2023-11-21T14:21:47;35.03;;;11.43;;
74074;SDS011;62428;51.412;5.432;2023-11-21T14:24:15;29.33;;;11.25;;
74074;SDS011;62428;51.412;5.432;2023-11-21T14:26:46;30.88;;;11.20;;
74074;SDS011;62428;51.412;5.432;2023-11-21T14:29:12;36.03;;;11.63;;
74074;SDS011;62428;51.412;5.432;2023-11-21T14:31:41;34.03;;;12.80;;
74074;SDS011;62428;51.412;5.432;2023-11-21T14:34:09;33.78;;;11.65;;
74074;SDS011;62428;51.412;5.432;2023-11-21T14:36:37;31.75;;;11.10;;
74074;SDS011;62428;51.412;5.432;2023-11-21T14:39:03;31.60;;;11.63;;
74074;SDS011;62428;51.412;5.432;2023-11-21T14:41:34;30.20;;;11.00;;